createdAt,value
2022-10-14T00:01:19.421Z,21.05
2022-10-14T00:04:26.184Z,18.30
2022-10-14T00:06:55.727Z,24.33
2022-10-14T00:09:23.773Z,23.20
2022-10-14T00:11:59.734Z,22.27
2022-10-14T00:14:43.958Z,21.17
2022-10-14T00:21:48.018Z,21.67
2022-10-14T00:25:10.308Z,23.70
2022-10-14T00:28:25.903Z,23.95
2022-10-14T00:31:24.273Z,24.67
2022-10-14T00:33:52.088Z,19.83
2022-10-14T00:44:28.002Z,19.35
2022-10-14T00:46:57.059Z,19.95
2022-10-14T00:49:32.226Z,20.05
2022-10-14T00:52:19.446Z,20.55
2022-10-14T00:54:57.105Z,19.58
2022-10-14T00:57:32.221Z,19.20
2022-10-14T01:00:14.997Z,20.23
2022-10-14T01:06:37.516Z,21.88
2022-10-14T01:09:29.151Z,17.33
2022-10-14T01:12:45.402Z,20.23
2022-10-14T01:19:17.218Z,18.50
2022-10-14T01:22:09.562Z,20.10
2022-10-14T01:25:07.778Z,17.63
2022-10-14T01:28:40.107Z,22.27
2022-10-14T01:32:09.395Z,20.40
2022-10-14T01:35:03.812Z,19.17
2022-10-14T01:38:14.092Z,20.55
2022-10-14T01:41:05.374Z,18.10
2022-10-14T01:44:00.604Z,18.90
2022-10-14T01:46:43.682Z,19.00
2022-10-14T01:49:40.050Z,22.73
2022-10-14T01:52:28.448Z,20.58
2022-10-14T02:03:12.640Z,21.75
2022-10-14T02:06:42.633Z,21.05
2022-10-14T02:10:47.405Z,18.83
2022-10-14T02:28:02.897Z,20.45
2022-10-14T02:39:51.753Z,19.73
2022-10-14T03:05:12.697Z,27.42
2022-10-14T03:08:28.440Z,26.15
2022-10-14T03:30:56.738Z,19.13
2022-10-14T03:33:49.900Z,20.80
2022-10-14T03:36:21.235Z,17.35
2022-10-14T03:38:57.667Z,19.05
2022-10-14T03:41:40.208Z,20.17
2022-10-14T03:44:10.156Z,20.75
2022-10-14T03:46:41.580Z,20.42
2022-10-14T03:49:10.684Z,15.65
2022-10-14T03:51:47.047Z,15.90
2022-10-14T03:54:22.631Z,21.92
2022-10-14T03:57:16.167Z,17.63
2022-10-14T04:00:05.245Z,19.88
2022-10-14T04:02:45.383Z,18.40
2022-10-14T04:05:25.789Z,19.70
2022-10-14T04:07:52.902Z,16.95
2022-10-14T04:10:19.924Z,21.55
2022-10-14T04:12:53.211Z,20.33
2022-10-14T04:15:27.968Z,20.73
2022-10-14T04:20:42.067Z,20.30
2022-10-14T04:23:09.950Z,17.77
2022-10-14T04:25:40.101Z,22.83
2022-10-14T04:28:07.648Z,21.80
2022-10-14T04:30:48.780Z,21.70
2022-10-14T04:33:21.319Z,21.27
2022-10-14T04:35:49.643Z,19.75
2022-10-14T04:38:24.286Z,18.17
2022-10-14T04:40:56.927Z,16.60
2022-10-14T04:43:24.042Z,17.35
2022-10-14T04:45:51.697Z,17.77
2022-10-14T04:48:24.574Z,19.42
2022-10-14T04:50:53.502Z,18.45
2022-10-14T04:53:33.320Z,17.40
2022-10-14T04:56:15.768Z,18.92
2022-10-14T04:58:53.180Z,17.52
2022-10-14T05:01:20.983Z,18.15
2022-10-14T05:03:48.318Z,20.55
2022-10-14T05:06:17.828Z,17.48
2022-10-14T05:08:45.707Z,19.63
2022-10-14T05:11:13.591Z,15.45
2022-10-14T05:13:46.037Z,15.27
2022-10-14T05:16:13.203Z,17.40
2022-10-14T05:18:40.201Z,17.60
2022-10-14T05:21:10.298Z,20.63
2022-10-14T05:23:47.461Z,15.98
2022-10-14T05:26:14.786Z,15.30
2022-10-14T05:28:42.697Z,14.50
2022-10-14T05:31:10.718Z,15.43
2022-10-14T05:33:45.691Z,14.05
2022-10-14T05:36:12.766Z,14.35
2022-10-14T05:38:39.597Z,11.55
2022-10-14T05:41:06.601Z,13.02
2022-10-14T05:43:33.771Z,14.82
2022-10-14T05:46:03.393Z,10.35
2022-10-14T05:48:35.108Z,11.88
2022-10-14T05:51:03.306Z,13.48
2022-10-14T05:53:32.832Z,12.18
2022-10-14T05:56:09.081Z,12.57
2022-10-14T05:58:38.689Z,13.85
2022-10-14T06:01:09.891Z,11.65
2022-10-14T06:03:39.997Z,14.75
2022-10-14T06:06:25.309Z,15.32
2022-10-14T06:08:56.387Z,12.80
2022-10-14T06:11:23.318Z,14.35
2022-10-14T06:13:50.463Z,14.07
2022-10-14T06:16:17.470Z,14.38
2022-10-14T06:18:44.297Z,15.70
2022-10-14T06:21:12.494Z,14.85
2022-10-14T06:23:39.337Z,14.32
2022-10-14T06:26:08.912Z,11.00
2022-10-14T06:28:37.327Z,14.30
2022-10-14T06:31:09.931Z,14.60
2022-10-14T06:33:36.721Z,13.00
2022-10-14T06:36:05.988Z,12.38
2022-10-14T06:38:33.146Z,11.48
2022-10-14T06:41:00.059Z,12.25
2022-10-14T06:43:27.553Z,14.45
2022-10-14T06:45:57.792Z,11.18
2022-10-14T06:48:24.660Z,11.27
2022-10-14T06:50:52.090Z,12.05
2022-10-14T06:53:19.018Z,11.65
2022-10-14T06:55:46.287Z,10.38
2022-10-14T06:58:13.121Z,10.40
2022-10-14T07:00:42.204Z,11.65
2022-10-14T07:03:12.546Z,10.88
2022-10-14T07:05:39.543Z,12.63
2022-10-14T07:08:07.327Z,9.05
2022-10-14T07:10:35.960Z,10.77
2022-10-14T07:13:03.150Z,12.15
2022-10-14T07:15:35.258Z,10.57
2022-10-14T07:18:05.382Z,12.63
2022-10-14T07:20:34.035Z,10.07
2022-10-14T07:23:00.893Z,9.23
2022-10-14T07:25:27.724Z,11.13
2022-10-14T07:27:54.637Z,8.35
2022-10-14T07:30:21.513Z,10.10
2022-10-14T07:32:48.367Z,10.88
2022-10-14T07:35:15.427Z,10.25
2022-10-14T07:37:42.656Z,11.70
2022-10-14T07:40:10.878Z,7.15
2022-10-14T07:42:38.383Z,7.25
2022-10-14T07:45:07.230Z,7.88
2022-10-14T07:47:34.043Z,8.85
2022-10-14T07:50:02.205Z,6.90
2022-10-14T07:52:29.254Z,8.45
2022-10-14T07:54:56.080Z,5.93
2022-10-14T07:57:24.243Z,7.57
2022-10-14T07:59:52.516Z,9.13
2022-10-14T08:02:19.678Z,7.22
2022-10-14T08:04:47.326Z,10.35
2022-10-14T08:07:16.893Z,10.35
2022-10-14T08:09:43.740Z,7.35
2022-10-14T08:12:10.634Z,7.50
2022-10-14T08:14:37.802Z,5.80
2022-10-14T08:17:04.679Z,8.05
2022-10-14T08:19:31.724Z,5.75
2022-10-14T08:21:58.547Z,8.68
2022-10-14T08:24:25.338Z,8.73
2022-10-14T08:26:58.057Z,6.68
2022-10-14T08:29:26.294Z,7.18
2022-10-14T08:31:55.139Z,9.05
2022-10-14T08:34:24.191Z,7.38
2022-10-14T08:36:51.803Z,5.85
2022-10-14T08:39:20.130Z,12.07
2022-10-14T08:42:17.956Z,8.63
2022-10-14T08:44:50.859Z,5.93
2022-10-14T08:47:26.617Z,5.50
2022-10-14T08:50:02.545Z,7.25
2022-10-14T08:52:39.075Z,6.75
2022-10-14T08:55:36.641Z,4.95
2022-10-14T08:58:28.454Z,6.35
2022-10-14T09:00:56.428Z,5.25
2022-10-14T09:03:33.038Z,8.55
2022-10-14T09:06:35.017Z,4.78
2022-10-14T09:09:17.108Z,4.72
2022-10-14T09:11:51.420Z,6.47
2022-10-14T09:14:25.050Z,6.22
2022-10-14T09:17:05.759Z,4.15
2022-10-14T09:19:44.380Z,2.95
2022-10-14T09:22:15.382Z,3.72
2022-10-14T09:24:48.345Z,3.58
2022-10-14T09:27:23.185Z,4.00
2022-10-14T09:30:01.481Z,2.70
2022-10-14T09:32:41.318Z,3.70
2022-10-14T09:35:33.669Z,2.85
2022-10-14T09:38:00.896Z,2.85
2022-10-14T09:40:36.105Z,3.90
2022-10-14T09:43:21.044Z,4.95
2022-10-14T09:46:10.906Z,2.75
2022-10-14T09:48:49.102Z,5.22
2022-10-14T09:51:33.683Z,3.42
2022-10-14T09:54:04.613Z,4.77
2022-10-14T09:56:41.843Z,5.00
2022-10-14T09:59:21.971Z,4.78
2022-10-14T10:01:59.220Z,3.63
2022-10-14T10:04:32.275Z,4.75
2022-10-14T10:07:05.721Z,4.70
2022-10-14T10:09:34.496Z,3.55
2022-10-14T10:12:27.196Z,2.45
2022-10-14T10:15:04.730Z,4.28
2022-10-14T10:17:40.487Z,4.22
2022-10-14T10:20:28.554Z,3.28
2022-10-14T10:22:56.693Z,3.35
2022-10-14T10:25:27.961Z,3.22
2022-10-14T10:27:59.338Z,5.80
2022-10-14T10:30:32.150Z,4.22
2022-10-14T10:33:50.440Z,6.10
2022-10-14T10:36:50.905Z,3.88
2022-10-14T10:39:40.595Z,2.85
2022-10-14T10:42:27.130Z,4.93
2022-10-14T10:45:23.321Z,4.88
2022-10-14T10:48:14.621Z,5.15
2022-10-14T10:50:49.799Z,4.75
2022-10-14T10:53:45.929Z,4.35
2022-10-14T10:56:41.435Z,3.90
2022-10-14T10:59:30.229Z,3.28
2022-10-14T11:02:13.845Z,4.53
2022-10-14T11:05:04.571Z,5.43
2022-10-14T11:08:18.923Z,4.22
2022-10-14T11:11:17.268Z,3.03
2022-10-14T11:14:03.355Z,3.92
2022-10-14T11:17:03.988Z,2.63
2022-10-14T11:19:49.099Z,3.90
2022-10-14T11:22:38.762Z,5.40
2022-10-14T11:25:51.062Z,4.10
2022-10-14T11:28:38.390Z,4.93
2022-10-14T11:31:26.787Z,4.78
2022-10-14T11:34:33.499Z,4.07
2022-10-14T11:37:25.250Z,4.80
2022-10-14T11:40:21.382Z,3.65
2022-10-14T11:43:53.158Z,4.72
2022-10-14T11:46:24.700Z,6.05
2022-10-14T11:49:48.594Z,8.20
2022-10-14T11:52:35.921Z,4.57
2022-10-14T11:55:16.840Z,5.75
2022-10-14T11:57:58.106Z,4.10
2022-10-14T12:00:56.932Z,6.15
2022-10-14T12:03:43.765Z,6.80
2022-10-14T12:06:21.866Z,5.22
2022-10-14T12:09:14.636Z,6.45
2022-10-14T12:12:01.616Z,8.55
2022-10-14T12:14:51.933Z,5.63
2022-10-14T12:17:34.084Z,7.00
2022-10-14T12:20:17.952Z,5.90
2022-10-14T12:22:48.828Z,8.02
2022-10-14T12:25:23.699Z,8.25
2022-10-14T12:27:52.267Z,6.82
2022-10-14T12:30:41.388Z,7.47
2022-10-14T12:33:13.568Z,9.38
2022-10-14T12:35:52.731Z,7.93
2022-10-14T12:38:22.623Z,8.80
2022-10-14T12:40:49.558Z,10.13
2022-10-14T12:43:26.462Z,7.72
2022-10-14T12:46:15.600Z,7.38
2022-10-14T12:48:50.691Z,8.48
2022-10-14T12:54:05.791Z,10.90
2022-10-14T12:56:39.602Z,11.55
2022-10-14T12:59:25.397Z,10.90
2022-10-14T13:02:04.676Z,6.97
2022-10-14T13:04:32.873Z,7.65
2022-10-14T13:07:46.608Z,10.23
2022-10-14T13:10:45.221Z,7.40
2022-10-14T13:13:58.227Z,9.25
2022-10-14T13:16:25.006Z,7.07
2022-10-14T13:18:57.877Z,8.30
2022-10-14T13:21:36.609Z,8.13
2022-10-14T13:24:27.396Z,7.07
2022-10-14T13:26:54.270Z,9.95
2022-10-14T13:29:26.107Z,10.10
2022-10-14T13:32:33.890Z,7.07
2022-10-14T13:35:31.589Z,8.20
2022-10-14T13:38:05.311Z,7.65
2022-10-14T13:40:38.552Z,8.93
2022-10-14T13:43:28.614Z,8.93
2022-10-14T13:46:09.241Z,11.93
2022-10-14T13:48:45.095Z,7.60
2022-10-14T13:51:35.515Z,13.35
2022-10-14T13:54:21.813Z,10.00
2022-10-14T13:57:48.003Z,10.18
2022-10-14T14:00:40.060Z,11.15
2022-10-14T14:03:30.926Z,12.02
2022-10-14T14:05:59.904Z,11.98
2022-10-14T14:08:42.190Z,10.63
2022-10-14T14:11:19.163Z,11.75
2022-10-14T14:14:06.963Z,12.18
2022-10-14T14:16:42.885Z,13.73
2022-10-14T14:19:31.391Z,17.45
2022-10-14T14:22:16.294Z,15.43
2022-10-14T14:24:43.496Z,13.88
2022-10-14T14:27:21.398Z,17.27
2022-10-14T14:29:51.772Z,15.35
2022-10-14T14:32:32.707Z,14.68
2022-10-14T14:35:13.370Z,15.90
2022-10-14T14:37:56.274Z,16.58
2022-10-14T14:40:30.000Z,17.55
2022-10-14T14:43:03.471Z,14.65
2022-10-14T14:45:37.482Z,18.35
2022-10-14T14:48:10.499Z,18.92
2022-10-14T14:50:43.777Z,20.40
2022-10-14T14:53:15.137Z,20.35
2022-10-14T14:56:07.958Z,18.30
2022-10-14T14:58:58.163Z,17.23
2022-10-14T15:01:29.991Z,19.20
2022-10-14T15:04:12.370Z,22.33
2022-10-14T15:06:51.374Z,16.52
2022-10-14T15:09:35.935Z,14.48
2022-10-14T15:12:12.206Z,17.80
2022-10-14T15:14:51.253Z,15.70
2022-10-14T15:17:37.720Z,19.55
2022-10-14T15:20:04.682Z,19.77
2022-10-14T15:22:44.714Z,12.48
2022-10-14T15:25:23.305Z,22.35
2022-10-14T15:27:55.803Z,17.95
2022-10-14T15:30:34.686Z,17.75
2022-10-14T15:33:15.904Z,26.13
2022-10-14T15:49:42.794Z,17.35
2022-10-14T15:52:18.553Z,14.95
2022-10-14T15:54:48.871Z,13.68
2022-10-14T15:57:16.931Z,10.20
2022-10-14T15:59:47.791Z,10.57
2022-10-14T16:02:22.920Z,11.65
2022-10-14T16:05:18.369Z,11.60
2022-10-14T16:07:39.382Z,11.07
2022-10-14T16:10:08.734Z,12.35
2022-10-14T16:12:35.581Z,11.40
2022-10-14T16:15:03.665Z,13.90
2022-10-14T16:17:31.850Z,13.85
2022-10-14T16:19:58.729Z,12.38
2022-10-14T16:22:25.589Z,13.82
2022-10-14T16:24:52.490Z,11.60
2022-10-14T16:27:19.530Z,13.30
2022-10-14T16:29:46.635Z,14.80
2022-10-14T16:32:13.883Z,11.90
2022-10-14T16:34:40.801Z,10.10
2022-10-14T16:37:09.078Z,11.40
2022-10-14T16:39:38.575Z,12.38
2022-10-14T16:42:05.716Z,11.60
2022-10-14T16:44:33.085Z,13.73
2022-10-14T16:47:19.249Z,11.98
2022-10-14T16:49:49.731Z,23.27
2022-10-14T16:52:17.454Z,20.45
2022-10-14T16:54:44.475Z,16.90
2022-10-14T16:57:11.937Z,17.80
2022-10-14T16:59:39.363Z,14.23
2022-10-14T17:02:11.269Z,17.23
2022-10-14T17:04:39.186Z,13.85
2022-10-14T17:07:09.059Z,18.13
2022-10-14T17:09:36.616Z,17.80
2022-10-14T17:12:08.176Z,18.98
2022-10-14T17:14:38.420Z,12.00
2022-10-14T17:17:05.394Z,9.90
2022-10-14T17:19:32.247Z,7.90
2022-10-14T17:22:01.951Z,6.30
2022-10-14T17:24:29.714Z,5.93
2022-10-14T17:26:57.060Z,5.85
2022-10-14T17:29:24.129Z,4.68
2022-10-14T17:31:51.857Z,6.82
2022-10-14T17:34:18.827Z,7.80
2022-10-14T17:36:45.676Z,7.93
2022-10-14T17:39:18.744Z,9.27
2022-10-14T17:41:51.467Z,5.53
2022-10-14T17:44:19.060Z,5.88
2022-10-14T17:46:45.977Z,6.00
2022-10-14T17:49:13.162Z,7.38
2022-10-14T17:51:40.008Z,6.90
2022-10-14T17:54:11.323Z,8.05
2022-10-14T17:56:39.466Z,8.52
2022-10-14T17:59:11.310Z,10.20
2022-10-14T18:04:25.423Z,8.13
2022-10-14T18:06:53.984Z,8.60
2022-10-14T18:09:21.144Z,10.27
2022-10-14T18:14:40.265Z,10.25
2022-10-14T18:17:07.210Z,9.98
2022-10-14T18:19:34.864Z,9.30
2022-10-14T18:22:03.579Z,9.90
2022-10-14T18:24:30.547Z,9.23
2022-10-14T18:26:57.354Z,9.23
2022-10-14T18:29:24.782Z,8.88
2022-10-14T18:34:25.265Z,8.30
2022-10-14T18:36:52.103Z,8.57
2022-10-14T18:39:20.383Z,10.27
2022-10-14T18:41:47.289Z,7.55
2022-10-14T18:44:15.108Z,7.40
2022-10-14T18:46:42.049Z,9.18
2022-10-14T18:49:11.677Z,8.77
2022-10-14T18:51:40.874Z,9.02
2022-10-14T18:54:14.109Z,9.40
2022-10-14T18:56:41.379Z,12.23
2022-10-14T18:59:16.158Z,8.20
2022-10-14T19:01:43.693Z,7.50
2022-10-14T19:04:12.985Z,8.77
2022-10-14T19:06:41.071Z,11.98
2022-10-14T19:09:12.433Z,8.55
2022-10-14T19:11:39.452Z,10.27
2022-10-14T19:14:06.555Z,14.35
2022-10-14T19:16:37.298Z,10.63
2022-10-14T19:19:15.063Z,10.57
2022-10-14T19:21:43.343Z,11.35
2022-10-14T19:24:12.835Z,12.80
2022-10-14T19:26:47.831Z,11.00
2022-10-14T19:29:15.909Z,14.82
2022-10-14T19:31:44.370Z,12.75
2022-10-14T19:34:15.864Z,12.48
2022-10-14T19:36:45.058Z,11.43
2022-10-14T19:39:16.139Z,13.20
2022-10-14T19:41:44.648Z,11.68
2022-10-14T19:44:13.560Z,14.25
2022-10-14T19:46:43.549Z,12.23
2022-10-14T19:49:14.429Z,11.23
2022-10-14T19:51:42.159Z,14.48
2022-10-14T19:54:12.054Z,17.35
2022-10-14T19:56:39.619Z,12.52
2022-10-14T19:59:07.348Z,12.23
2022-10-14T20:01:34.711Z,11.10
2022-10-14T20:04:02.951Z,13.55
2022-10-14T20:06:34.342Z,13.68
2022-10-14T20:09:02.230Z,12.90
2022-10-14T20:11:29.755Z,14.77
2022-10-14T20:13:57.157Z,11.75
2022-10-14T20:16:24.484Z,13.55
2022-10-14T20:18:54.821Z,13.70
2022-10-14T20:21:22.152Z,12.73
2022-10-14T20:23:49.566Z,11.98
2022-10-14T20:26:20.342Z,12.38
2022-10-14T20:28:48.253Z,14.38
2022-10-14T20:31:19.395Z,14.70
2022-10-14T20:33:46.425Z,28.48
2022-10-14T20:36:21.855Z,26.67
2022-10-14T20:38:49.984Z,38.25
2022-10-14T20:41:26.426Z,24.85
2022-10-14T20:43:56.023Z,21.67
2022-10-14T20:46:24.572Z,21.08
2022-10-14T20:48:56.742Z,18.50
2022-10-14T20:51:24.464Z,18.92
2022-10-14T20:54:02.700Z,21.92
2022-10-14T20:56:33.374Z,16.88
2022-10-14T20:59:13.492Z,23.83
2022-10-14T21:01:40.529Z,23.50
2022-10-14T21:04:08.166Z,24.17
2022-10-14T21:06:35.841Z,38.17
2022-10-14T21:09:02.933Z,37.40
2022-10-14T21:11:30.859Z,34.42
2022-10-14T21:13:59.730Z,38.58
2022-10-14T21:16:33.075Z,35.97
2022-10-14T21:19:06.933Z,30.20
2022-10-14T21:21:41.077Z,30.67
2022-10-14T21:24:12.756Z,28.73
2022-10-14T21:26:39.639Z,29.10
2022-10-14T21:29:06.540Z,28.23
2022-10-14T21:31:33.558Z,26.05
2022-10-14T21:34:06.158Z,28.40
2022-10-14T21:36:35.313Z,18.83
2022-10-14T21:39:13.397Z,23.27
2022-10-14T21:41:41.886Z,21.85
2022-10-14T21:44:13.265Z,21.25
2022-10-14T21:46:41.123Z,23.95
2022-10-14T21:49:10.549Z,24.25
2022-10-14T21:51:38.323Z,20.58
2022-10-14T21:54:06.168Z,21.02
2022-10-14T21:56:33.167Z,23.35
2022-10-14T21:59:00.090Z,20.67
2022-10-14T22:01:29.681Z,20.35
2022-10-14T22:04:04.077Z,20.08
2022-10-14T22:06:33.839Z,19.03
2022-10-14T22:09:04.283Z,17.88
2022-10-14T22:11:41.908Z,17.70
2022-10-14T22:14:14.818Z,18.58
2022-10-14T22:16:41.612Z,19.73
2022-10-14T22:19:09.644Z,20.00
2022-10-14T22:21:39.236Z,18.85
2022-10-14T22:26:35.528Z,18.75
2022-10-14T22:29:10.479Z,17.55
2022-10-14T22:31:37.733Z,20.92
2022-10-14T22:34:07.675Z,17.90
2022-10-14T22:36:35.878Z,18.25
2022-10-14T22:39:09.934Z,23.88
2022-10-14T22:41:36.777Z,21.10
2022-10-14T22:44:05.996Z,22.90
2022-10-14T22:46:36.903Z,22.08
2022-10-14T22:49:04.365Z,22.33
2022-10-14T22:51:36.381Z,23.95
2022-10-14T22:54:04.321Z,23.77
2022-10-14T22:56:32.604Z,22.45
2022-10-14T22:59:04.224Z,20.23
2022-10-14T23:01:31.897Z,19.70
2022-10-14T23:04:00.141Z,20.02
2022-10-14T23:06:28.541Z,21.80
2022-10-14T23:08:55.919Z,16.38
2022-10-14T23:11:24.947Z,17.33
2022-10-14T23:13:52.595Z,13.15
2022-10-14T23:16:26.042Z,16.10
2022-10-14T23:18:54.018Z,15.68
2022-10-14T23:21:24.784Z,13.88
2022-10-14T23:23:55.032Z,20.42
2022-10-14T23:26:26.055Z,13.57
2022-10-14T23:28:59.632Z,16.42
2022-10-14T23:31:31.158Z,14.63
2022-10-14T23:34:00.833Z,12.45
2022-10-14T23:36:28.361Z,9.82
2022-10-14T23:38:55.601Z,12.30
2022-10-14T23:41:23.891Z,12.48
2022-10-14T23:43:51.979Z,11.02
2022-10-14T23:46:20.128Z,12.35
2022-10-14T23:48:55.492Z,14.55
2022-10-14T23:51:41.315Z,11.43
2022-10-14T23:54:09.150Z,17.98
2022-10-14T23:56:36.003Z,12.82
2022-10-14T23:59:02.873Z,13.45
